Time;durP1;ratioP1;P1;durP2;ratioP2;P2;SDS_P1;SDS_P2;PMS_P1;PMS_P2;Temp;Humidity;BMP_temperature;BMP_pressure;BME280_temperature;BME280_humidity;BME280_pressure;Samples;Min_cycle;Max_cycle;Signal;HPM_P1;HPM_P2
2022/12/11 00:11:52;;;;;;;33.50;17.80;;;;;;;0.85;85.47;99700.50;660658;1308;138648;-84
2022/12/11 00:26:56;;;;;;;32.30;16.20;;;;;;;0.77;85.02;99703.89;660577;1309;138667;-84
2022/12/11 00:41:59;;;;;;;29.30;13.90;;;;;;;0.87;83.75;99704.17;660495;1313;164872;-84
2022/12/11 00:57:03;;;;;;;24.40;13.80;;;;;;;0.95;83.12;99703.05;660395;1312;140038;-84
2022/12/11 01:12:06;;;;;;;27.60;12.50;;;;;;;0.80;84.60;99694.27;660663;1310;138674;-84
2022/12/11 01:27:09;;;;;;;22.90;14.40;;;;;;;0.68;84.65;99683.75;660363;1313;138575;-84
2022/12/11 01:42:17;;;;;;;19.60;11.50;;;;;;;0.32;84.38;99679.71;660478;1304;138485;-84
2022/12/11 01:57:22;;;;;;;19.60;9.70;;;;;;;0.11;84.13;99688.27;660391;1313;138520;-85
2022/12/11 02:12:34;;;;;;;20.90;12.70;;;;;;;0.24;84.29;99682.41;660570;1312;138035;-84
2022/12/11 02:27:46;;;;;;;26.40;14.80;;;;;;;0.29;83.68;99662.49;660607;1312;138754;-84
2022/12/11 02:42:52;;;;;;;20.00;9.90;;;;;;;0.00;83.64;99648.41;660621;1311;138354;-83
2022/12/11 02:58:03;;;;;;;22.00;13.10;;;;;;;-0.10;84.05;99649.16;660591;1313;138464;-84
2022/12/11 03:13:07;;;;;;;24.70;13.80;;;;;;;-0.16;84.51;99635.18;660584;1312;138720;-84
2022/12/11 03:28:20;;;;;;;23.10;13.00;;;;;;;0.02;85.07;99642.12;661104;1308;22193;-84
2022/12/11 03:43:25;;;;;;;22.00;11.20;;;;;;;0.08;84.68;99620.48;660800;1311;22316;-84
2022/12/11 03:58:29;;;;;;;26.20;14.70;;;;;;;-0.09;85.01;99603.52;660804;1311;22359;-84
2022/12/11 04:13:32;;;;;;;33.60;18.10;;;;;;;-0.32;85.06;99593.77;660834;1312;22155;-84
2022/12/11 04:28:35;;;;;;;26.70;13.10;;;;;;;-0.28;85.10;99582.90;660789;1307;22198;-84
2022/12/11 04:43:40;;;;;;;29.90;14.70;;;;;;;-0.28;85.69;99593.07;660656;1313;22235;-84
2022/12/11 04:58:44;;;;;;;31.90;14.80;;;;;;;0.37;83.06;99599.08;662217;1305;22832;-84
2022/12/11 05:13:47;;;;;;;30.90;12.20;;;;;;;-0.29;83.81;99594.29;660642;1304;23079;-84
2022/12/11 05:28:53;;;;;;;26.90;13.20;;;;;;;-0.66;85.77;99592.64;660800;1306;22377;-84
2022/12/11 05:43:56;;;;;;;32.20;15.10;;;;;;;-0.99;88.04;99588.70;660803;1310;23172;-83
2022/12/11 05:59:01;;;;;;;34.70;16.90;;;;;;;-0.83;88.02;99593.87;660808;1312;22160;-84
2022/12/11 06:14:04;;;;;;;40.60;20.60;;;;;;;-0.68;87.69;99582.80;660448;1311;23096;-84
2022/12/11 06:29:07;;;;;;;40.70;19.60;;;;;;;-1.02;87.42;99571.30;660493;1312;22186;-84
2022/12/11 06:44:15;;;;;;;45.60;21.90;;;;;;;-1.34;88.79;99570.20;660790;1308;23006;-83
2022/12/11 06:59:18;;;;;;;46.00;23.00;;;;;;;-1.25;88.95;99566.99;660704;1312;22130;-85
2022/12/11 07:14:21;;;;;;;35.10;15.00;;;;;;;-1.10;88.39;99563.46;660915;1313;22344;-83
2022/12/11 07:29:25;;;;;;;43.90;18.80;;;;;;;-1.31;88.78;99559.92;660831;1312;22237;-84
2022/12/11 07:44:28;;;;;;;47.50;21.90;;;;;;;-1.36;88.98;99552.77;660925;1306;22135;-83
2022/12/11 07:59:31;;;;;;;239.70;84.00;;;;;;;-1.28;88.93;99561.11;660627;1312;22210;-83
2022/12/11 08:14:35;;;;;;;361.50;101.50;;;;;;;-1.13;88.53;99564.98;660593;1308;22256;-83
2022/12/11 08:29:39;;;;;;;141.60;54.10;;;;;;;-1.13;88.17;99562.92;660196;1312;138839;-83
2022/12/11 08:44:43;;;;;;;82.10;30.90;;;;;;;-1.06;87.60;99543.55;660717;1302;138850;-83
2022/12/11 08:59:46;;;;;;;78.90;28.70;;;;;;;-0.95;87.71;99536.80;660693;1313;138852;-83
2022/12/11 09:14:49;;;;;;;44.70;20.90;;;;;;;-0.62;87.67;99528.56;660613;1312;138774;-83
2022/12/11 09:29:53;;;;;;;49.80;20.90;;;;;;;-0.43;87.74;99510.69;660568;1312;138680;-83
2022/12/11 09:45:00;;;;;;;84.00;31.90;;;;;;;-0.47;86.82;99489.25;660770;1312;138745;-83
2022/12/11 10:00:23;;;;;;;35.90;16.70;;;;;;;-0.48;86.97;99477.61;660473;1313;138755;-83
2022/12/11 10:15:44;;;;;;;70.90;28.50;;;;;;;-0.21;85.87;99452.75;660394;1313;138693;-83
2022/12/11 10:31:13;;;;;;;41.50;19.10;;;;;;;-0.19;85.79;99433.53;660155;1312;138668;-84
2022/12/11 10:46:23;;;;;;;93.90;33.00;;;;;;;-0.53;87.00;99425.17;660618;1312;138719;-83
2022/12/11 11:01:30;;;;;;;37.00;16.20;;;;;;;-0.51;87.09;99410.98;660665;1311;138709;-84
2022/12/11 11:16:37;;;;;;;40.10;17.60;;;;;;;-0.58;87.01;99403.09;660646;1311;138747;-84
2022/12/11 11:31:41;;;;;;;72.30;34.90;;;;;;;-0.58;87.00;99387.96;660677;1313;138749;-83
2022/12/11 11:46:52;;;;;;;75.10;29.70;;;;;;;-0.69;86.76;99375.36;660565;1313;138855;-84
2022/12/11 12:01:56;;;;;;;50.60;21.40;;;;;;;-0.58;85.28;99366.36;660661;1313;139185;-84
2022/12/11 12:17:21;;;;;;;38.50;16.60;;;;;;;-0.80;86.14;99349.69;660598;1300;138946;-83
2022/12/11 12:33:10;;;;;;;46.30;20.60;;;;;;;-0.68;85.70;99329.45;660711;1302;138828;-83
2022/12/11 12:48:14;;;;;;;40.70;17.20;;;;;;;-0.73;85.38;99307.04;660237;1299;175194;-83
2022/12/11 13:03:29;;;;;;;54.90;24.50;;;;;;;-0.87;85.53;99298.73;660250;1311;138707;-83
2022/12/11 13:18:38;;;;;;;37.30;16.40;;;;;;;-0.84;85.48;99288.16;660249;1313;139187;-83
2022/12/11 13:33:49;;;;;;;41.30;16.70;;;;;;;-0.88;85.48;99270.83;660061;1311;138733;-83
2022/12/11 13:49:19;;;;;;;49.50;23.20;;;;;;;-0.94;85.45;99261.55;659947;1313;138730;-83
2022/12/11 14:04:24;;;;;;;52.70;20.10;;;;;;;-0.92;85.68;99247.36;662196;1305;138672;-83
2022/12/11 14:19:28;;;;;;;25.10;12.00;;;;;;;-1.09;85.78;99244.36;660923;1307;139576;-83
2022/12/11 14:34:43;;;;;;;55.80;24.50;;;;;;;-1.07;85.81;99232.11;660579;1307;138966;-84
2022/12/11 14:50:00;;;;;;;52.40;22.60;;;;;;;-1.11;86.29;99227.48;660578;1310;139043;-84
2022/12/11 15:05:11;;;;;;;54.10;21.30;;;;;;;-0.98;86.41;99222.82;660373;1313;138800;-83
2022/12/11 15:20:29;;;;;;;86.30;32.90;;;;;;;-0.77;86.11;99204.13;660683;1313;138816;-82
2022/12/11 15:35:32;;;;;;;261.60;58.60;;;;;;;-0.99;86.51;99193.72;660471;1305;138878;-82
2022/12/11 15:50:35;;;;;;;100.50;31.30;;;;;;;-0.98;86.11;99185.56;660593;1308;138938;-83
2022/12/11 16:05:40;;;;;;;138.50;42.60;;;;;;;-0.94;86.23;99180.88;660423;1306;138718;-83
2022/12/11 16:20:45;;;;;;;73.70;29.40;;;;;;;-1.01;86.07;99180.95;660957;1311;138948;-83
2022/12/11 16:35:49;;;;;;;53.20;20.90;;;;;;;-0.95;86.36;99169.95;660440;1313;138842;-83
2022/12/11 16:50:53;;;;;;;45.10;22.40;;;;;;;-0.82;86.44;99168.52;660566;1312;139148;-83
2022/12/11 17:05:57;;;;;;;54.20;23.20;;;;;;;-0.66;85.94;99163.46;660468;1311;138695;-82
2022/12/11 17:21:06;;;;;;;95.70;33.40;;;;;;;-0.65;86.05;99165.11;660825;1313;139284;-83
2022/12/11 17:36:12;;;;;;;105.70;32.90;;;;;;;-0.56;86.07;99165.25;660518;1313;139420;-83
2022/12/11 17:51:22;;;;;;;79.70;27.30;;;;;;;-0.59;85.45;99149.08;660631;1313;139787;-83
2022/12/11 18:06:27;;;;;;;56.80;23.30;;;;;;;-0.63;85.30;99126.02;660488;1305;138676;-82
2022/12/11 18:21:33;;;;;;;44.30;18.30;;;;;;;-0.60;84.94;99125.98;660683;1308;138766;-82
2022/12/11 18:36:36;;;;;;;39.50;15.80;;;;;;;-0.68;84.62;99123.57;660278;1313;138901;-83
2022/12/11 18:51:40;;;;;;;29.90;18.00;;;;;;;-0.64;84.76;99118.86;660476;1305;138889;-83
2022/12/11 19:06:43;;;;;;;51.50;23.60;;;;;;;-0.60;84.97;99116.35;660510;1312;138681;-83
2022/12/11 19:21:48;;;;;;;45.20;16.70;;;;;;;-0.55;84.49;99113.50;660613;1310;138755;-83
2022/12/11 19:36:51;;;;;;;27.30;14.40;;;;;;;-0.57;84.34;99110.86;660515;1308;138938;-83
2022/12/11 19:51:55;;;;;;;27.70;13.50;;;;;;;-0.52;84.57;99101.13;660600;1311;138601;-83
2022/12/11 20:06:58;;;;;;;33.20;15.20;;;;;;;-0.45;84.49;99097.81;660205;1311;139329;-83
2022/12/11 20:22:02;;;;;;;35.10;16.60;;;;;;;-0.39;84.63;99091.25;660463;1312;139219;-83
2022/12/11 20:37:06;;;;;;;33.60;13.50;;;;;;;-0.29;85.05;99087.16;660454;1307;139514;-83
2022/12/11 20:52:10;;;;;;;49.40;21.80;;;;;;;-0.22;85.44;99081.38;660556;1299;138596;-83
2022/12/11 21:07:13;;;;;;;42.80;17.80;;;;;;;-0.21;85.75;99069.30;660314;1310;139144;-83
2022/12/11 21:22:16;;;;;;;29.40;13.60;;;;;;;-0.13;86.06;99054.41;660391;1311;139304;-82
2022/12/11 21:37:20;;;;;;;29.30;12.50;;;;;;;-0.11;86.85;99032.92;660405;1310;139393;-83
2022/12/11 21:52:23;;;;;;;53.10;18.60;;;;;;;-0.17;88.55;99019.55;660496;1312;139283;-83
2022/12/11 22:07:27;;;;;;;49.80;19.60;;;;;;;-0.07;89.44;99015.19;660501;1312;139306;-83
2022/12/11 22:22:31;;;;;;;50.00;16.80;;;;;;;0.07;90.28;99010.66;660322;1312;139356;-84
2022/12/11 22:37:34;;;;;;;29.50;13.80;;;;;;;0.20;90.81;99003.62;660328;1311;139124;-82
2022/12/11 22:52:37;;;;;;;78.60;29.20;;;;;;;0.37;90.91;98989.47;660512;1312;138845;-83
2022/12/11 23:07:41;;;;;;;61.20;23.80;;;;;;;0.41;91.53;98982.63;660448;1301;138526;-84
2022/12/11 23:22:44;;;;;;;41.70;21.70;;;;;;;0.45;92.15;98977.40;660482;1313;139337;-84
2022/12/11 23:37:48;;;;;;;38.00;19.20;;;;;;;0.54;92.89;98973.52;660558;1311;139107;-85
2022/12/11 23:52:52;;;;;;;19.60;9.60;;;;;;;0.57;93.01;98974.88;660429;1312;139066;-82
